Latest Coastal Weather Observations for Dunalley

IDT60701

Issued at 4:52 am EST Sunday 31 July 2016 (issued every 10 minutes, with the page automatically refreshed every 10 minutes)

About coastal observations | Map of coastal stations | Coastal observations for TAS | Marine services | Other Formats
Station Details ID: 094254 Name: DUNALLEY (STROUD POINT) Lat: -42.90 Lon: 147.79 Height: 12.43 m
Data from the previous 72 hours. | See also: Recent months at Dunalley
Date/Time
EST
Temp
°C
Wind Pressure Rain since
9am
mm
Weather Cloud Vis
km
Sea
Height
m
Swell
Dir  Spd
kts
Gust
kts
hPa Trend Height
m
Period
s
Dir
31/04:30am 10.9 WNW 12 19 1002.3 - 0.8 - - - - - - -
31/04:00am 11.0 W 12 16 1002.1 - 0.8 - - - - - - -
31/03:30am 11.6 WNW 14 20 1001.8 - 0.8 - - - - - - -
31/03:00am 11.7 NW 14 21 1001.5 - 0.8 Recent precip. - - - - - -
31/02:30am 11.9 NW 18 31 1002.0 - 0.6 - - - - - - -
31/02:27am 12.0 NNW 16 31 1002.0 - 0.6 - - - - - - -
31/02:00am 12.6 N 10 14 1001.6 - 0.0 - - - - - - -
31/01:30am 12.3 NNE 16 22 1001.4 - 0.0 - - - - - - -
31/01:00am 12.4 N 12 21 1002.0 - 0.0 - - - - - - -
31/12:30am 11.8 N 11 17 1002.7 - 0.0 - - - - - - -
31/12:00am 11.5 NNE 17 23 1003.4 - 0.0 - - - - - - -
 
Date/Time
EST
Temp
°C
Wind Pressure Rain since
9am
mm
Weather Cloud Vis
km
Sea
Height
m
Swell
Dir  Spd
kts
Gust
kts
hPa Trend Height
m
Period
s
Dir
30/11:30pm 11.5 NNE 13 18 1004.3 - 0.0 - - - - - - -
30/11:00pm 11.0 NNE 10 14 1005.1 - 0.0 - - - - - - -
30/10:30pm 11.0 N 10 17 1005.5 - 0.0 - - - - - - -
30/10:00pm 11.1 N 13 19 1006.3 - 0.0 - - - - - - -
30/09:30pm 10.9 N 9 18 1006.5 - 0.0 - - - - - - -
30/09:00pm 10.5 N 9 13 1007.1 - 0.0 - - - - - - -
30/08:30pm 10.2 N 7 10 1007.9 - 0.0 - - - - - - -
30/08:00pm 9.5 NNE 10 15 1007.9 - 0.0 - - - - - - -
30/07:30pm 9.5 ENE 8 11 1008.7 - 0.0 - - - - - - -
30/07:00pm 9.1 ENE 4 6 1009.3 - 0.0 - - - - - - -
30/06:30pm 8.9 ENE 9 12 1009.3 - 0.0 - - - - - - -
30/06:00pm 8.3 NE 5 7 1009.8 - 0.0 - - - - - - -
30/05:30pm 8.4 NE 5 10 1009.8 - 0.0 - - - - - - -
30/05:00pm 9.1 NNE 7 10 1010.6 - 0.0 - - - - - - -
30/04:30pm 9.7 N 8 12 1011.2 - 0.0 - - - - - - -
30/04:00pm 10.3 N 7 11 1011.8 - 0.0 - - - - - - -
30/03:30pm 10.0 NNE 8 12 1012.1 - 0.0 - - - - - - -
30/03:00pm 11.2 NNE 7 14 1012.3 - 0.0 - - - - - - -
30/02:30pm 11.3 NNE 7 13 1012.9 - 0.0 - - - - - - -
30/02:00pm 10.6 NE 11 14 1013.3 - 0.0 - - - - - - -
30/01:30pm 10.4 NE 9 14 1013.8 - 0.0 - - - - - - -
30/01:00pm 10.0 NE 10 17 1014.7 - 0.0 - - - - - - -
30/12:30pm 10.1 NNE 9 11 1015.5 - 0.0 - - - - - - -
30/12:00pm 10.8 NW 3 5 1016.3 - 0.0 - - - - - - -
30/11:30am 9.5 NW 6 7 1017.1 - 0.0 - - - - - - -
30/11:00am 9.3 NW 5 7 1017.7 - 0.0 - - - - - - -
30/10:30am 9.0 NW 6 8 1018.1 - 0.0 - - - - - - -
30/10:00am 8.4 NNW 8 10 1018.3 - 0.0 - - - - - - -
30/09:30am 7.7 NNW 9 12 1018.5 - 0.0 - - - - - - -
30/09:00am 7.3 NNW 8 10 1018.6 - 0.6 - - - - - - -
30/08:30am 6.6 NNW 8 10 1018.5 - 0.6 - - - - - - -
30/08:00am 5.4 NNW 9 10 1018.3 - 0.6 - - - - - - -
30/07:30am 4.2 NW 7 10 1018.2 - 0.6 - - - - - - -
30/07:00am 5.4 NW 8 10 1017.9 - 0.6 - - - - - - -
30/06:30am 4.9 NNW 8 10 1017.6 - 0.6 - - - - - - -
30/06:00am 6.1 NW 8 12 1017.7 - 0.6 - - - - - - -
30/05:30am 6.2 NNW 8 11 1017.5 - 0.6 - - - - - - -
30/05:00am 6.1 NW 8 11 1017.5 - 0.6 - - - - - - -
30/04:30am 6.3 WNW 10 13 1017.6 - 0.6 - - - - - - -
30/04:00am 6.6 W 12 17 1017.2 - 0.6 - - - - - - -
30/03:30am 6.9 WNW 9 12 1017.1 - 0.6 - - - - - - -
30/03:00am 6.4 WNW 9 11 1016.9 - 0.6 - - - - - - -
30/02:30am 7.7 W 17 19 1016.7 - 0.6 - - - - - - -
30/02:00am 7.8 WSW 13 17 1016.8 - 0.6 - - - - - - -
30/01:30am 7.8 WSW 15 19 1016.6 - 0.6 - - - - - - -
30/01:00am 8.0 WSW 19 22 1016.2 - 0.6 - - - - - - -
30/12:30am 8.1 W 19 23 1016.1 - 0.6 - - - - - - -
30/12:00am 8.3 WSW 25 29 1015.0 - 0.6 - - - - - - -
 
Date/Time
EST
Temp
°C
Wind Pressure Rain since
9am
mm
Weather Cloud Vis
km
Sea
Height
m
Swell
Dir  Spd
kts
Gust
kts
hPa Trend Height
m
Period
s
Dir
29/11:30pm 8.6 WSW 20 24 1015.4 - 0.6 - - - - - - -
29/11:00pm 8.2 WSW 22 26 1014.7 - 0.6 - - - - - - -
29/10:30pm 8.4 WSW 21 23 1014.6 - 0.6 - - - - - - -
29/10:00pm 8.4 W 18 23 1014.4 - 0.6 - - - - - - -
29/09:30pm 8.4 WSW 19 22 1013.4 - 0.6 - - - - - - -
29/09:00pm 8.4 WSW 19 22 1013.1 - 0.6 - - - - - - -
29/08:30pm 8.4 WSW 19 22 1012.9 - 0.6 - - - - - - -
29/08:00pm 8.4 WSW 20 24 1012.6 - 0.6 - - - - - - -
29/07:30pm 8.9 WSW 26 33 1011.8 - 0.6 - - - - - - -
29/07:24pm 9.0 WSW 20 33 1011.6 - 0.6 - - - - - - -
29/07:22pm 8.9 WSW 18 32 1011.7 - 0.6 - - - - - - -
29/07:00pm 8.7 SW 19 22 1011.0 - 0.6 - - - - - - -
29/06:30pm 9.1 SW 21 25 1010.2 - 0.6 - - - - - - -
29/06:00pm 9.6 SW 19 23 1009.4 - 0.6 - - - - - - -
29/05:30pm 9.7 SW 25 29 1008.0 - 0.6 - - - - - - -
29/05:00pm 9.4 WSW 21 25 1007.3 - 0.6 - - - - - - -
29/04:42pm 9.2 SW 23 29 1006.9 - 0.4 - - - - - - -
29/04:30pm 10.1 SW 16 19 1006.7 - 0.2 - - - - - - -
29/04:00pm 10.7 WSW 18 21 1005.9 - 0.2 - - - - - - -
29/03:30pm 10.2 WSW 22 31 1005.5 - 0.2 - - - - - - -
29/03:15pm 11.2 WSW 20 32 1005.1 - 0.0 - - - - - - -
29/03:00pm 12.1 W 14 20 1004.7 - 0.0 - - - - - - -
29/02:30pm 12.8 W 16 21 1004.3 - 0.0 - - - - - - -
29/02:00pm 12.9 WNW 19 24 1003.9 - 0.0 - - - - - - -
29/01:30pm 13.4 WNW 21 28 1003.6 - 0.0 - - - - - - -
29/01:00pm 12.6 W 17 26 1004.5 - 0.0 - - - - - - -
29/12:30pm 12.8 WNW 21 33 1004.4 - 0.0 - - - - - - -
29/12:08pm 13.3 W 23 33 1004.1 - 0.0 - - - - - - -
29/12:00pm 13.1 WNW 23 31 1004.1 - 0.0 - - - - - - -
29/11:41am 13.5 WNW 18 32 1004.8 - 0.0 - - - - - - -
29/11:30am 13.4 NW 15 24 1005.3 - 0.0 - - - - - - -
29/11:00am 12.8 WNW 9 16 1006.0 - 0.0 - - - - - - -
29/10:30am 12.0 WNW 16 23 1006.3 - 0.0 - - - - - - -
29/10:00am 13.4 WNW 10 16 1005.9 - 0.0 - - - - - - -
29/09:30am 12.6 NW 7 14 1006.1 - 0.0 - - - - - - -
29/09:00am 12.8 NNW 7 10 1006.2 - 0.0 - - - - - - -
29/08:30am 12.0 NW 6 14 1006.7 - 0.0 - - - - - - -
29/08:00am 10.9 NNW 6 11 1006.8 - 0.0 - - - - - - -
29/07:30am 10.7 NNW 5 8 1006.7 - 0.0 - - - - - - -
29/07:00am 10.9 NW 8 13 1006.5 - 0.0 - - - - - - -
29/06:30am 10.2 NNW 5 10 1006.6 - 0.0 - - - - - - -
29/06:00am 10.4 NW 8 14 1006.9 - 0.0 - - - - - - -
29/05:30am 10.6 NW 11 15 1007.1 - 0.0 - - - - - - -
29/05:00am 10.3 WNW 14 20 1007.0 - 0.0 - - - - - - -
29/04:30am 10.6 WNW 18 24 1006.9 - 0.0 - - - - - - -
29/04:00am 10.7 WNW 18 25 1007.1 - 0.0 - - - - - - -
29/03:30am 10.6 NW 13 21 1007.5 - 0.0 - - - - - - -
29/03:00am 10.4 NNW 6 11 1008.0 - 0.0 - - - - - - -
29/02:30am 10.2 NNW 8 13 1008.2 - 0.0 - - - - - - -
29/02:00am 10.3 NW 11 17 1008.5 - 0.0 - - - - - - -
29/01:30am 10.5 NW 13 21 1008.9 - 0.0 - - - - - - -
29/01:00am 10.3 NW 12 18 1009.0 - 0.0 - - - - - - -
29/12:30am 10.5 NW 9 14 1009.2 - 0.0 - - - - - - -
29/12:00am 10.4 NW 9 13 1009.6 - 0.0 - - - - - - -
 
Date/Time
EST
Temp
°C
Wind Pressure Rain since
9am
mm
Weather Cloud Vis
km
Sea
Height
m
Swell
Dir  Spd
kts
Gust
kts
hPa Trend Height
m
Period
s
Dir
28/11:30pm 10.1 NW 8 13 1009.8 - 0.0 - - - - - - -
28/11:00pm 10.5 NW 11 14 1009.8 - 0.0 - - - - - - -
28/10:30pm 10.1 WNW 11 14 1009.8 - 0.0 - - - - - - -
28/10:00pm 10.4 WNW 12 16 1010.0 - 0.0 - - - - - - -
28/09:30pm 10.4 WNW 12 16 1010.1 - 0.0 - - - - - - -
28/09:00pm 10.6 WNW 13 17 1010.0 - 0.0 - - - - - - -
28/08:30pm 10.5 WNW 13 19 1010.0 - 0.0 - - - - - - -
28/08:00pm 11.0 W 15 21 1010.0 - 0.0 - - - - - - -
28/07:30pm 10.2 W 9 13 1010.4 - 0.0 - - - - - - -
28/07:00pm 10.0 NW 7 12 1010.4 - 0.0 - - - - - - -
28/06:30pm 10.4 W 18 21 1009.3 - 0.0 - - - - - - -
28/06:00pm 10.6 WSW 17 20 1009.0 - 0.0 - - - - - - -
28/05:30pm 11.5 W 13 18 1008.9 - 0.0 - - - - - - -
28/05:00pm 10.9 W 17 20 1008.3 - 0.0 - - - - - - -
28/04:30pm 12.4 W 23 30 1007.4 - 0.0 - - - - - - -
28/04:00pm 13.1 W 20 28 1007.1 - 0.0 - - - - - - -
28/03:30pm 14.1 WNW 19 25 1007.1 - 0.0 - - - - - - -
28/03:18pm 14.3 WNW 18 28 1007.1 - 0.0 - - - - - - -
28/03:00pm 13.5 WNW 16 23 1007.2 - 0.0 - - - - - - -
28/02:30pm 13.2 W 14 20 1006.5 - 0.0 - - - - - - -
28/02:00pm 13.6 W 17 22 1006.2 - 0.0 - - - - - - -
28/01:30pm 13.2 W 21 25 1005.7 - 0.0 - - - - - - -
28/01:00pm 13.0 WSW 19 26 1005.8 - 0.0 - - - - - - -
28/12:30pm 13.2 WSW 20 25 1006.0 - 0.0 - - - - - - -
28/12:00pm 12.7 WSW 19 23 1006.1 - 0.0 - - - - - - -
28/11:30am 12.2 WSW 23 28 1005.9 - 0.0 - - - - - - -
28/11:00am 13.2 W 25 31 1006.1 - 0.0 - - - - - - -
28/10:30am 12.8 W 28 33 1005.9 - 0.0 - - - - - - -
28/10:00am 12.8 W 29 33 1005.2 - 0.0 - - - - - - -
28/09:30am 12.4 W 24 30 1005.6 - 0.0 - - - - - - -
28/09:00am 12.3 W 22 30 1005.7 - 1.8 - - - - - - -
28/08:30am 12.1 W 20 28 1006.0 - 1.8 - - - - - - -
28/08:03am 11.6 WNW 18 28 1005.7 - 1.8 - - - - - - -
28/08:00am 11.6 WNW 19 28 1005.7 - 1.8 - - - - - - -
28/07:51am 11.4 WNW 17 27 1005.5 - 1.8 - - - - - - -
28/07:30am 11.3 WNW 20 28 1005.6 - 1.8 - - - - - - -
28/07:05am 10.8 WNW 17 28 1005.8 - 1.8 - - - - - - -
28/07:00am 10.8 WNW 17 26 1005.8 - 1.8 - - - - - - -
28/06:30am 10.6 WNW 16 23 1006.0 - 1.8 - - - - - - -
28/06:00am 10.9 WNW 19 28 1005.6 - 1.8 - - - - - - -
28/05:45am 10.7 W 16 27 1005.8 - 1.8 - - - - - - -
28/05:30am 10.7 W 16 23 1005.7 - 1.8 - - - - - - -
28/05:00am 10.3 W 18 26 1005.8 - 1.8 - - - - - - -

Other Formats:

Comma delimited format used in spreadsheet applications
http://www.bom.gov.au/fwo/IDT60701/IDT60701.94951.axf

JavaScript Object Notation format (JSON) in row-major order
http://www.bom.gov.au/fwo/IDT60701/IDT60701.94951.json